C6042 KOPF-KOPF
Flight info
| Callsign | C6042 |
|---|---|
| Flight time | N/A |
| Altitude | 4000 |
| Route | OPF |
| Aircraft | H60/L-G/SB2 |
Departure
| Time | 2026-05-07 06:56 |
|---|---|
| Airport | Miami-Opa Locka Executive Airport (KOPF) |
Arrival
| Time | N/A |
|---|---|
| Airport | Miami-Opa Locka Executive Airport (KOPF) |
| Time | Latitude | Longitude | Altitude | Speed | Heading |
|---|---|---|---|---|---|
| 2026-05-07 06:54 | 25.90731 | -80.27619 | 17 ft | 0 kts | 300° |
| 2026-05-07 06:55 | 25.90731 | -80.27620 | 18 ft | 1 kts | 298° |
| 2026-05-07 06:55 | 25.90704 | -80.27638 | 316 ft | 31 kts | 186° |
| 2026-05-07 06:56 | 25.90046 | -80.27904 | 459 ft | 145 kts | 205° |
| 2026-05-07 06:56 | 25.89021 | -80.28395 | 765 ft | 170 kts | 205° |
| 2026-05-07 06:56 | 25.87894 | -80.28921 | 939 ft | 185 kts | 202° |
| 2026-05-07 06:56 | 25.86622 | -80.29349 | 776 ft | 192 kts | 186° |
| 2026-05-07 06:57 | 25.85389 | -80.29377 | 1299 ft | 164 kts | 185° |
| 2026-05-07 06:57 | 25.84345 | -80.29758 | 1972 ft | 160 kts | 207° |
| 2026-05-07 06:57 | 25.83303 | -80.30343 | 2278 ft | 177 kts | 205° |
| 2026-05-07 06:57 | 25.82058 | -80.30717 | 2102 ft | 195 kts | 193° |
| 2026-05-07 06:58 | 25.80681 | -80.30850 | 1570 ft | 195 kts | 185° |
| 2026-05-07 06:58 | 25.79370 | -80.30937 | 1474 ft | 186 kts | 185° |
| 2026-05-07 06:58 | 25.78123 | -80.31175 | 1608 ft | 175 kts | 195° |
| 2026-05-07 06:58 | 25.76928 | -80.31492 | 1595 ft | 175 kts | 195° |
| 2026-05-07 06:59 | 25.75736 | -80.31805 | 1592 ft | 176 kts | 195° |
| 2026-05-07 06:59 | 25.74545 | -80.32118 | 1595 ft | 176 kts | 195° |
| 2026-05-07 06:59 | 25.73359 | -80.32433 | 1599 ft | 176 kts | 195° |
| 2026-05-07 06:59 | 25.72169 | -80.32748 | 1607 ft | 176 kts | 195° |
| 2026-05-07 07:00 | 25.70980 | -80.33060 | 1608 ft | 175 kts | 195° |
| 2026-05-07 07:00 | 25.69793 | -80.33372 | 1604 ft | 175 kts | 195° |
| 2026-05-07 07:00 | 25.68608 | -80.33682 | 1604 ft | 175 kts | 195° |
| 2026-05-07 07:00 | 25.67420 | -80.33995 | 1603 ft | 175 kts | 195° |
| 2026-05-07 07:01 | 25.66233 | -80.34308 | 1603 ft | 175 kts | 195° |
| 2026-05-07 07:01 | 25.65046 | -80.34621 | 1603 ft | 175 kts | 195° |
| 2026-05-07 07:01 | 25.63862 | -80.34932 | 1612 ft | 175 kts | 195° |
| 2026-05-07 07:01 | 25.62676 | -80.35243 | 1603 ft | 175 kts | 195° |
| 2026-05-07 07:02 | 25.61489 | -80.35556 | 1603 ft | 175 kts | 195° |
| 2026-05-07 07:02 | 25.60305 | -80.35868 | 1603 ft | 175 kts | 195° |
| 2026-05-07 07:02 | 25.59122 | -80.36180 | 1603 ft | 175 kts | 195° |
| 2026-05-07 07:02 | 25.57938 | -80.36490 | 1602 ft | 175 kts | 195° |
| 2026-05-07 07:03 | 25.56753 | -80.36803 | 1602 ft | 175 kts | 195° |
| 2026-05-07 07:03 | 25.55568 | -80.37117 | 1603 ft | 175 kts | 195° |
| 2026-05-07 07:03 | 25.54400 | -80.37425 | 1603 ft | 175 kts | 195° |
| 2026-05-07 07:03 | 25.53217 | -80.37735 | 1604 ft | 174 kts | 195° |
| 2026-05-07 07:04 | 25.52034 | -80.38045 | 1605 ft | 175 kts | 195° |
| 2026-05-07 07:04 | 25.50874 | -80.38448 | 1605 ft | 175 kts | 201° |
| 2026-05-07 07:04 | 25.49729 | -80.38906 | 1609 ft | 175 kts | 201° |
| 2026-05-07 07:04 | 25.48588 | -80.39361 | 1605 ft | 174 kts | 201° |
| 2026-05-07 07:05 | 25.47448 | -80.39814 | 1604 ft | 174 kts | 201° |
| 2026-05-07 07:05 | 25.46310 | -80.40268 | 1603 ft | 174 kts | 201° |
| 2026-05-07 07:05 | 25.45169 | -80.40723 | 1608 ft | 174 kts | 201° |
| 2026-05-07 07:05 | 25.44029 | -80.41178 | 1603 ft | 174 kts | 201° |
| 2026-05-07 07:06 | 25.42891 | -80.41632 | 1603 ft | 174 kts | 201° |
| 2026-05-07 07:06 | 25.41736 | -80.42091 | 1602 ft | 174 kts | 201° |
| 2026-05-07 07:06 | 25.40609 | -80.42540 | 1602 ft | 174 kts | 201° |
| 2026-05-07 07:06 | 25.39840 | -80.42849 | 1608 ft | 174 kts | 201° |
| 2026-05-07 07:07 | 25.38332 | -80.43453 | 1602 ft | 174 kts | 201° |
| 2026-05-07 07:07 | 25.37195 | -80.43907 | 1603 ft | 174 kts | 202° |
| 2026-05-07 07:07 | 25.36055 | -80.44361 | 1603 ft | 174 kts | 202° |
| 2026-05-07 07:07 | 25.34917 | -80.44814 | 1602 ft | 174 kts | 202° |
| 2026-05-07 07:08 | 25.34148 | -80.45122 | 1603 ft | 174 kts | 202° |
| 2026-05-07 07:08 | 25.33010 | -80.45578 | 1603 ft | 174 kts | 202° |
| 2026-05-07 07:08 | 25.31873 | -80.46034 | 1603 ft | 174 kts | 202° |
| 2026-05-07 07:08 | 25.30735 | -80.46488 | 1607 ft | 174 kts | 202° |
| 2026-05-07 07:09 | 25.29595 | -80.46944 | 1607 ft | 174 kts | 202° |
| 2026-05-07 07:09 | 25.28457 | -80.47400 | 1604 ft | 174 kts | 202° |
| 2026-05-07 07:09 | 25.27322 | -80.47854 | 1603 ft | 174 kts | 202° |
| 2026-05-07 07:09 | 25.26182 | -80.48309 | 1603 ft | 174 kts | 202° |
| 2026-05-07 07:10 | 25.25057 | -80.48756 | 1603 ft | 174 kts | 202° |
| 2026-05-07 07:10 | 25.23904 | -80.49218 | 1604 ft | 174 kts | 202° |
| 2026-05-07 07:10 | 25.22782 | -80.49668 | 1604 ft | 174 kts | 202° |
| 2026-05-07 07:10 | 25.21646 | -80.50122 | 1603 ft | 174 kts | 202° |
| 2026-05-07 07:11 | 25.20506 | -80.50577 | 1602 ft | 174 kts | 202° |
| 2026-05-07 07:11 | 25.19367 | -80.51032 | 1605 ft | 174 kts | 202° |
| 2026-05-07 07:11 | 25.18228 | -80.51486 | 1603 ft | 174 kts | 202° |
| 2026-05-07 07:11 | 25.17090 | -80.51942 | 1603 ft | 174 kts | 202° |
| 2026-05-07 07:12 | 25.15952 | -80.52397 | 1603 ft | 174 kts | 202° |
| 2026-05-07 07:12 | 25.14813 | -80.52853 | 1603 ft | 174 kts | 202° |
| 2026-05-07 07:12 | 25.13676 | -80.53307 | 1603 ft | 174 kts | 202° |
| 2026-05-07 07:12 | 25.12539 | -80.53764 | 1602 ft | 174 kts | 202° |
| 2026-05-07 07:13 | 25.11406 | -80.54220 | 1607 ft | 173 kts | 202° |
| 2026-05-07 07:13 | 25.10271 | -80.54673 | 1602 ft | 173 kts | 202° |
| 2026-05-07 07:13 | 25.09135 | -80.55126 | 1603 ft | 174 kts | 202° |
| 2026-05-07 07:13 | 25.07998 | -80.55581 | 1603 ft | 173 kts | 202° |
| 2026-05-07 07:14 | 25.06864 | -80.56038 | 1602 ft | 173 kts | 202° |
| 2026-05-07 07:14 | 25.05730 | -80.56493 | 1611 ft | 173 kts | 202° |
| 2026-05-07 07:14 | 25.04601 | -80.56960 | 1605 ft | 173 kts | 202° |
| 2026-05-07 07:14 | 25.03476 | -80.57434 | 1604 ft | 173 kts | 202° |
| 2026-05-07 07:15 | 25.02320 | -80.57774 | 1605 ft | 173 kts | 192° |
| 2026-05-07 07:15 | 25.01129 | -80.57980 | 1604 ft | 173 kts | 191° |
| 2026-05-07 07:15 | 24.99934 | -80.58187 | 1603 ft | 174 kts | 191° |
| 2026-05-07 07:15 | 24.98736 | -80.58395 | 1603 ft | 174 kts | 191° |
| 2026-05-07 07:16 | 24.97538 | -80.58603 | 1603 ft | 174 kts | 191° |
| 2026-05-07 07:16 | 24.96341 | -80.58812 | 1602 ft | 174 kts | 191° |
| 2026-05-07 07:16 | 24.95145 | -80.59020 | 1605 ft | 174 kts | 191° |
| 2026-05-07 07:16 | 24.93950 | -80.59230 | 1605 ft | 174 kts | 191° |
| 2026-05-07 07:17 | 24.92752 | -80.59438 | 1602 ft | 174 kts | 191° |
| 2026-05-07 07:17 | 24.91557 | -80.59644 | 1602 ft | 174 kts | 191° |
| 2026-05-07 07:17 | 24.90359 | -80.59852 | 1604 ft | 174 kts | 191° |
| 2026-05-07 07:17 | 24.89163 | -80.60063 | 1602 ft | 174 kts | 191° |
| 2026-05-07 07:18 | 24.87969 | -80.60273 | 1604 ft | 174 kts | 191° |
| 2026-05-07 07:18 | 24.86790 | -80.60479 | 1603 ft | 174 kts | 191° |
| 2026-05-07 07:18 | 24.85582 | -80.60688 | 1602 ft | 174 kts | 191° |
| 2026-05-07 07:18 | 24.84389 | -80.60896 | 1605 ft | 174 kts | 191° |
| 2026-05-07 07:19 | 24.83212 | -80.61103 | 1602 ft | 173 kts | 191° |
| 2026-05-07 07:19 | 24.82018 | -80.61311 | 1602 ft | 174 kts | 191° |
| 2026-05-07 07:19 | 24.80823 | -80.61520 | 1602 ft | 174 kts | 191° |
| 2026-05-07 07:19 | 24.79627 | -80.61728 | 1603 ft | 174 kts | 191° |
| 2026-05-07 07:20 | 24.78433 | -80.61939 | 1604 ft | 173 kts | 191° |
| 2026-05-07 07:20 | 24.77240 | -80.62148 | 1603 ft | 173 kts | 191° |
| 2026-05-07 07:20 | 24.76047 | -80.62358 | 1603 ft | 174 kts | 191° |
| 2026-05-07 07:20 | 24.74852 | -80.62565 | 1602 ft | 174 kts | 191° |
| 2026-05-07 07:21 | 24.73662 | -80.62793 | 1600 ft | 173 kts | 195° |
| 2026-05-07 07:21 | 24.72545 | -80.63257 | 1601 ft | 172 kts | 203° |
| 2026-05-07 07:21 | 24.71434 | -80.63746 | 1602 ft | 173 kts | 204° |
| 2026-05-07 07:21 | 24.70315 | -80.64239 | 1603 ft | 173 kts | 204° |
| 2026-05-07 07:22 | 24.69192 | -80.64735 | 1608 ft | 174 kts | 204° |
| 2026-05-07 07:22 | 24.68069 | -80.65225 | 1605 ft | 173 kts | 203° |
| 2026-05-07 07:22 | 24.66950 | -80.65711 | 1602 ft | 173 kts | 203° |
| 2026-05-07 07:22 | 24.65828 | -80.66125 | 1603 ft | 164 kts | 194° |
| 2026-05-07 07:23 | 24.64745 | -80.66322 | 1471 ft | 155 kts | 203° |
| 2026-05-07 07:23 | 24.63974 | -80.67053 | 1305 ft | 144 kts | 245° |
| 2026-05-07 07:23 | 24.63995 | -80.68153 | 922 ft | 149 kts | 302° |
| 2026-05-07 07:23 | 24.64797 | -80.68892 | 654 ft | 153 kts | 325° |
| 2026-05-07 07:24 | 24.65831 | -80.69281 | 360 ft | 166 kts | 348° |
| 2026-05-07 07:24 | 24.66397 | -80.69918 | 214 ft | 99 kts | 261° |
| 2026-05-07 07:24 | 24.65835 | -80.69834 | 299 ft | 97 kts | 124° |
| 2026-05-07 07:24 | 24.66162 | -80.69203 | 538 ft | 115 kts | 22° |
| 2026-05-07 07:25 | 24.66102 | -80.69939 | 1104 ft | 92 kts | 171° |
| 2026-05-07 07:25 | 24.65828 | -80.69252 | 1388 ft | 124 kts | 86° |
| 2026-05-07 07:25 | 24.66098 | -80.68359 | 1747 ft | 123 kts | 68° |
| 2026-05-07 07:26 | 24.66644 | -80.67758 | 2190 ft | 116 kts | 19° |
| 2026-05-07 07:26 | 24.67395 | -80.67981 | 2472 ft | 113 kts | 322° |
| 2026-05-07 07:26 | 24.67604 | -80.68704 | 2936 ft | 98 kts | 265° |
| 2026-05-07 07:26 | 24.67160 | -80.69277 | 3382 ft | 100 kts | 214° |
| 2026-05-07 07:27 | 24.66649 | -80.69074 | 3948 ft | 92 kts | 133° |
| 2026-05-07 07:27 | 24.66521 | -80.68251 | 4161 ft | 127 kts | 96° |
| 2026-05-07 07:27 | 24.66404 | -80.67181 | 3948 ft | 154 kts | 98° |
| 2026-05-07 07:27 | 24.66229 | -80.65932 | 3341 ft | 176 kts | 100° |
| 2026-05-07 07:28 | 24.65984 | -80.64579 | 2532 ft | 179 kts | 107° |
| 2026-05-07 07:28 | 24.65661 | -80.63354 | 2394 ft | 157 kts | 105° |
| 2026-05-07 07:28 | 24.65437 | -80.62203 | 2391 ft | 151 kts | 102° |
| 2026-05-07 07:28 | 24.65353 | -80.61043 | 2290 ft | 154 kts | 89° |
| 2026-05-07 07:29 | 24.65458 | -80.59827 | 1992 ft | 170 kts | 85° |
| 2026-05-07 07:29 | 24.65469 | -80.58412 | 763 ft | 198 kts | 95° |
| 2026-05-07 07:29 | 24.65369 | -80.57065 | 470 ft | 155 kts | 95° |
| 2026-05-07 07:29 | 24.65400 | -80.56019 | 375 ft | 102 kts | 46° |
| 2026-05-07 07:30 | 24.65677 | -80.55900 | 238 ft | 29 kts | 356° |
| 2026-05-07 07:30 | 24.65733 | -80.56002 | 150 ft | 1 kts | 352° |
| 2026-05-07 07:30 | 24.65779 | -80.56021 | 61 ft | 7 kts | 347° |
| 2026-05-07 07:30 | 24.65803 | -80.56028 | 55 ft | 5 kts | 346° |
| 2026-05-07 07:31 | 24.65825 | -80.56033 | 31 ft | 0 kts | 346° |
| 2026-05-07 07:31 | 24.65829 | -80.56034 | 31 ft | 1 kts | 346° |